الصفحة الرئيسية
METAR-TAF:

METAR-TAF

مطار :

Kingman, أريزونا, الولايات المتحدة

دائرة عرض: 35-15-28N, خط طول: 113-55-59W, ارتفاع: 1050 متر

مراقبة الطقس الحالي

تاريخ ووقت الإصدار 35 دقيقة قبل الساعة 04:51UTC
ريح 9 عقدة من الشرق
درجة الحرارة 4°درجة مئوية
الرطوبة 87%
ضغط 1026 hPa
الرؤية: 16.1 كم
سماء صافية

METAR: KIGM 100451Z AUTO 09009KT 10SM CLR 04/02 A3030 RMK AO2 SLP235 T00440017

زمن: 22:26 (05:26 UTC)


TAF: مفقودة

أرصاد الطقس والتوقعات من أكثر من 4000 مطار (تقارير الطقس للمطار METAR والتنبؤ بالطقس بالمطارTAF).

المحطات المتاحة هي النقط الصفراء والحمراء على الخريطة.

حرك المؤشر فوق النقطة لمعرفة اسم المحطة.

ثم انقر لمعرفة أرصاد وتوقعات الطقس.

لتغيير الخارطة: اضغط على الأزرار الخضراء مع رمز الصليب الأسود للتكبير. على الزر الأخضر مع شرطة للتصغير، أو على الأسهم الخضراء للخرائط المجاورة.


METAR-TAF: